createdAt,value
2023-04-15T00:01:24.261Z,2.30
2023-04-15T00:03:55.442Z,1.77
2023-04-15T00:06:22.863Z,2.22
2023-04-15T00:08:52.472Z,2.13
2023-04-15T00:11:20.314Z,2.33
2023-04-15T00:13:47.560Z,2.95
2023-04-15T00:16:14.836Z,1.70
2023-04-15T00:18:41.902Z,2.38
2023-04-15T00:21:09.723Z,2.95
2023-04-15T00:23:39.714Z,1.92
2023-04-15T00:26:10.061Z,2.47
2023-04-15T00:28:37.510Z,2.08
2023-04-15T00:31:04.565Z,2.20
2023-04-15T00:33:32.001Z,2.50
2023-04-15T00:36:00.561Z,3.03
2023-04-15T00:38:28.264Z,2.38
2023-04-15T00:40:56.571Z,2.67
2023-04-15T00:43:23.847Z,2.47
2023-04-15T00:45:53.841Z,2.65
2023-04-15T00:48:21.285Z,2.97
2023-04-15T00:50:52.115Z,2.55
2023-04-15T00:53:19.243Z,2.10
2023-04-15T00:55:46.346Z,2.38
2023-04-15T00:58:13.348Z,2.83
2023-04-15T01:00:43.557Z,2.75
2023-04-15T01:03:12.030Z,2.60
2023-04-15T01:05:39.468Z,2.83
2023-04-15T01:08:09.909Z,119.53
2023-04-15T01:10:38.026Z,78.05
2023-04-15T01:13:05.301Z,17.65
2023-04-15T01:15:33.586Z,22.38
2023-04-15T01:18:03.362Z,9.82
2023-04-15T01:20:34.685Z,4.32
2023-04-15T01:23:02.679Z,3.08
2023-04-15T01:25:34.485Z,3.28
2023-04-15T01:28:02.268Z,2.80
2023-04-15T01:30:30.137Z,2.60
2023-04-15T01:32:57.577Z,2.78
2023-04-15T01:35:25.109Z,2.72
2023-04-15T01:37:53.010Z,3.00
2023-04-15T01:40:20.802Z,3.10
2023-04-15T01:42:47.984Z,3.13
2023-04-15T01:45:15.749Z,2.88
2023-04-15T01:47:43.758Z,3.25
2023-04-15T01:50:11.384Z,3.42
2023-04-15T01:52:40.373Z,3.45
2023-04-15T01:55:08.670Z,3.13
2023-04-15T01:57:35.954Z,3.05
2023-04-15T02:00:04.869Z,3.65
2023-04-15T02:02:40.384Z,57.67
2023-04-15T02:05:11.159Z,5.63
2023-04-15T02:07:38.239Z,8.00
2023-04-15T02:10:05.677Z,28.42
2023-04-15T02:12:36.056Z,11.27
2023-04-15T02:15:03.104Z,40.75
2023-04-15T02:17:39.021Z,54.22
2023-04-15T02:20:08.818Z,21.02
2023-04-15T02:22:35.834Z,42.88
2023-04-15T02:25:02.834Z,118.78
2023-04-15T02:27:32.894Z,59.80
2023-04-15T02:30:02.983Z,65.63
2023-04-15T02:32:30.324Z,37.03
2023-04-15T02:34:57.300Z,13.02
2023-04-15T02:37:28.779Z,14.90
2023-04-15T02:40:00.723Z,48.80
2023-04-15T02:42:29.017Z,23.75
2023-04-15T02:44:56.569Z,8.70
2023-04-15T02:47:29.383Z,6.47
2023-04-15T02:49:58.670Z,9.38
2023-04-15T02:52:29.164Z,4.97
2023-04-15T02:55:00.712Z,8.02
2023-04-15T02:57:31.324Z,6.18
2023-04-15T03:00:06.497Z,5.57
2023-04-15T03:02:39.439Z,3.17
2023-04-15T03:05:07.524Z,4.00
2023-04-15T03:07:34.432Z,3.53
2023-04-15T03:10:02.988Z,3.28
2023-04-15T03:12:31.118Z,3.65
2023-04-15T03:14:58.820Z,3.10
2023-04-15T03:17:33.955Z,2.92
2023-04-15T03:20:03.969Z,3.00
2023-04-15T03:22:34.505Z,2.55
2023-04-15T03:25:02.754Z,3.30
2023-04-15T03:27:29.690Z,3.63
2023-04-15T03:30:00.313Z,3.65
2023-04-15T03:32:30.902Z,3.17
2023-04-15T03:34:58.071Z,3.78
2023-04-15T03:37:24.941Z,3.35
2023-04-15T03:39:51.904Z,3.28
2023-04-15T03:42:18.850Z,2.85
2023-04-15T03:44:45.972Z,3.63
2023-04-15T03:47:13.265Z,4.05
2023-04-15T03:49:40.239Z,3.70
2023-04-15T03:52:07.195Z,3.75
2023-04-15T03:54:34.145Z,3.95
2023-04-15T03:57:01.462Z,3.42
2023-04-15T03:59:28.478Z,3.30
2023-04-15T04:01:55.706Z,3.35
2023-04-15T04:04:22.901Z,3.20
2023-04-15T04:06:49.933Z,3.47
2023-04-15T04:09:17.017Z,4.35
2023-04-15T04:11:45.638Z,3.55
2023-04-15T04:14:12.538Z,3.72
2023-04-15T04:16:39.521Z,3.60
2023-04-15T04:19:06.452Z,2.92
2023-04-15T04:21:34.330Z,3.05
2023-04-15T04:24:01.446Z,3.33
2023-04-15T04:26:28.329Z,3.47
2023-04-15T04:28:55.480Z,3.10
2023-04-15T04:31:22.558Z,2.92
2023-04-15T04:33:49.540Z,2.67
2023-04-15T04:36:16.540Z,3.00
2023-04-15T04:38:43.481Z,2.95
2023-04-15T04:41:10.752Z,2.40
2023-04-15T04:43:37.637Z,2.40
2023-04-15T04:46:04.613Z,2.30
2023-04-15T04:48:31.713Z,2.33
2023-04-15T04:50:59.349Z,2.40
2023-04-15T04:53:26.520Z,2.38
2023-04-15T04:55:53.632Z,2.42
2023-04-15T04:58:20.792Z,2.50
2023-04-15T05:00:48.061Z,2.45
2023-04-15T05:03:15.247Z,2.72
2023-04-15T05:05:42.604Z,2.67
2023-04-15T05:08:09.595Z,2.58
2023-04-15T05:10:36.613Z,2.72
2023-04-15T05:13:03.646Z,2.42
2023-04-15T05:15:30.747Z,2.40
2023-04-15T05:17:57.802Z,2.40
2023-04-15T05:20:24.937Z,2.47
2023-04-15T05:22:51.937Z,2.10
2023-04-15T05:25:19.459Z,2.47
2023-04-15T05:27:46.514Z,2.72
2023-04-15T05:30:13.943Z,2.92
2023-04-15T05:32:41.016Z,3.00
2023-04-15T05:35:08.690Z,3.25
2023-04-15T05:37:35.662Z,2.53
2023-04-15T05:40:02.799Z,13.70
2023-04-15T05:42:29.816Z,3.00
2023-04-15T05:44:56.797Z,3.40
2023-04-15T05:47:23.963Z,3.35
2023-04-15T05:49:51.157Z,2.90
2023-04-15T05:52:18.217Z,3.08
2023-04-15T05:54:45.427Z,3.53
2023-04-15T05:57:12.908Z,3.55
2023-04-15T05:59:39.808Z,3.22
2023-04-15T06:02:07.688Z,3.00
2023-04-15T06:04:34.819Z,3.40
2023-04-15T06:07:01.908Z,3.28
2023-04-15T06:09:31.881Z,3.47
2023-04-15T06:11:59.326Z,2.88
2023-04-15T06:14:26.285Z,3.45
2023-04-15T06:16:53.227Z,3.25
2023-04-15T06:19:20.739Z,3.63
2023-04-15T06:21:47.736Z,3.80
2023-04-15T06:24:14.833Z,2.95
2023-04-15T06:26:41.771Z,2.95
2023-04-15T06:29:08.898Z,2.63
2023-04-15T06:31:36.044Z,3.30
2023-04-15T06:34:03.102Z,3.10
2023-04-15T06:36:30.129Z,2.63
2023-04-15T06:38:57.357Z,2.65
2023-04-15T06:41:24.746Z,2.45
2023-04-15T06:43:51.752Z,2.78
2023-04-15T06:46:19.058Z,2.53
2023-04-15T06:48:46.264Z,2.75
2023-04-15T06:51:13.415Z,2.10
2023-04-15T06:53:42.358Z,2.40
2023-04-15T06:56:09.835Z,2.15
2023-04-15T06:58:37.297Z,3.05
2023-04-15T07:01:04.618Z,2.20
2023-04-15T07:03:32.843Z,2.75
2023-04-15T07:06:00.123Z,2.53
2023-04-15T07:08:27.068Z,2.35
2023-04-15T07:10:54.563Z,2.25
2023-04-15T07:13:21.932Z,2.60
2023-04-15T07:15:48.873Z,2.55
2023-04-15T07:18:16.127Z,2.20
2023-04-15T07:20:43.957Z,2.28
2023-04-15T07:23:10.912Z,2.22
2023-04-15T07:25:37.962Z,2.38
2023-04-15T07:28:05.097Z,2.85
2023-04-15T07:30:32.094Z,2.40
2023-04-15T07:32:59.490Z,2.55
2023-04-15T07:35:26.709Z,2.90
2023-04-15T07:37:53.671Z,2.70
2023-04-15T07:40:20.887Z,2.72
2023-04-15T07:42:49.706Z,3.15
2023-04-15T07:45:17.031Z,2.50
2023-04-15T07:47:44.207Z,2.63
2023-04-15T07:50:14.855Z,2.85
2023-04-15T07:52:42.194Z,2.50
2023-04-15T07:55:09.839Z,2.65
2023-04-15T07:57:37.752Z,3.25
2023-04-15T08:00:09.005Z,2.58
2023-04-15T08:02:43.121Z,2.35
2023-04-15T08:05:11.444Z,2.95
2023-04-15T08:07:38.614Z,2.08
2023-04-15T08:10:06.701Z,2.17
2023-04-15T08:12:33.755Z,2.08
2023-04-15T08:15:02.159Z,1.75
2023-04-15T08:17:29.204Z,2.00
2023-04-15T08:19:56.222Z,2.22
2023-04-15T08:22:24.078Z,2.17
2023-04-15T08:24:51.535Z,2.22
2023-04-15T08:27:19.056Z,2.17
2023-04-15T08:29:46.057Z,2.17
2023-04-15T08:32:13.128Z,2.33
2023-04-15T08:34:40.325Z,1.98
2023-04-15T08:37:07.268Z,2.30
2023-04-15T08:39:37.155Z,2.22
2023-04-15T08:42:08.321Z,2.10
2023-04-15T08:44:39.169Z,2.45
2023-04-15T08:47:08.828Z,1.90
2023-04-15T08:49:43.167Z,2.63
2023-04-15T08:52:10.670Z,2.15
2023-04-15T08:54:38.917Z,2.15
2023-04-15T08:57:06.904Z,2.15
2023-04-15T08:59:33.797Z,1.75
2023-04-15T09:02:01.406Z,1.52
2023-04-15T09:04:29.064Z,2.08
2023-04-15T09:06:57.381Z,2.20
2023-04-15T09:09:24.417Z,1.55
2023-04-15T09:11:52.264Z,1.73
2023-04-15T09:14:19.215Z,1.88
2023-04-15T09:16:59.997Z,1.98
2023-04-15T09:19:27.280Z,1.80
2023-04-15T09:21:58.942Z,1.88
2023-04-15T09:24:33.912Z,1.80
2023-04-15T09:27:01.211Z,1.75
2023-04-15T09:29:28.159Z,1.80
2023-04-15T09:31:55.513Z,1.75
2023-04-15T09:34:36.317Z,2.33
2023-04-15T09:37:04.244Z,2.10
2023-04-15T09:39:52.696Z,1.90
2023-04-15T09:42:27.020Z,1.95
2023-04-15T09:44:54.204Z,2.03
2023-04-15T09:47:29.142Z,1.52
2023-04-15T09:49:57.896Z,1.63
2023-04-15T09:52:24.868Z,2.00
2023-04-15T09:54:55.528Z,2.28
2023-04-15T09:57:23.763Z,1.75
2023-04-15T09:59:53.558Z,1.70
2023-04-15T10:02:23.654Z,2.05
2023-04-15T10:04:52.773Z,1.80
2023-04-15T10:07:22.586Z,1.70
2023-04-15T10:09:50.147Z,1.88
2023-04-15T10:12:20.400Z,2.03
2023-04-15T10:15:00.184Z,1.85
2023-04-15T10:17:33.910Z,1.67
2023-04-15T10:20:05.493Z,1.90
2023-04-15T10:22:33.371Z,1.40
2023-04-15T10:25:01.290Z,1.40
2023-04-15T10:27:29.141Z,1.38
2023-04-15T10:29:57.335Z,1.85
2023-04-15T10:32:25.907Z,2.03
2023-04-15T10:34:54.724Z,1.65
2023-04-15T10:37:33.324Z,2.55
2023-04-15T10:40:00.237Z,2.10
2023-04-15T10:42:35.149Z,2.45
2023-04-15T10:45:02.133Z,2.22
2023-04-15T10:47:29.177Z,2.10
2023-04-15T10:50:01.251Z,3.25
2023-04-15T10:52:29.548Z,2.22
2023-04-15T10:55:16.065Z,2.60
2023-04-15T10:57:43.871Z,2.53
2023-04-15T11:00:11.635Z,2.35
2023-04-15T11:02:45.378Z,2.72
2023-04-15T11:05:16.845Z,2.53
2023-04-15T11:07:49.538Z,2.30
2023-04-15T11:10:26.013Z,2.33
2023-04-15T11:13:00.045Z,2.30
2023-04-15T11:15:45.915Z,2.28
2023-04-15T11:18:14.237Z,2.25
2023-04-15T11:20:45.657Z,1.83
2023-04-15T11:23:14.801Z,2.60
2023-04-15T11:25:44.092Z,1.83
2023-04-15T11:28:12.738Z,2.38
2023-04-15T11:30:40.963Z,1.88
2023-04-15T11:33:10.901Z,2.75
2023-04-15T11:35:38.561Z,2.10
2023-04-15T11:38:08.911Z,2.45
2023-04-15T11:40:36.316Z,1.75
2023-04-15T11:43:20.398Z,2.20
2023-04-15T11:45:57.578Z,2.20
2023-04-15T11:48:29.546Z,2.03
2023-04-15T11:51:04.938Z,2.92
2023-04-15T11:53:48.146Z,2.35
2023-04-15T11:56:23.116Z,3.85
2023-04-15T11:58:58.721Z,3.50
2023-04-15T12:01:52.575Z,2.55
2023-04-15T12:04:25.247Z,2.95
2023-04-15T12:06:53.227Z,2.50
2023-04-15T12:09:21.315Z,2.10
2023-04-15T12:11:53.990Z,2.25
2023-04-15T12:14:34.187Z,2.15
2023-04-15T12:17:06.289Z,2.80
2023-04-15T12:19:45.647Z,2.88
2023-04-15T12:22:15.997Z,2.38
2023-04-15T12:24:47.119Z,2.97
2023-04-15T12:27:16.112Z,2.75
2023-04-15T12:29:44.084Z,4.32
2023-04-15T12:32:12.909Z,2.88
2023-04-15T12:34:40.847Z,4.13
2023-04-15T12:37:10.974Z,4.65
2023-04-15T12:39:44.106Z,2.42
2023-04-15T12:42:12.275Z,3.05
2023-04-15T12:44:40.453Z,2.28
2023-04-15T12:47:08.835Z,2.88
2023-04-15T12:49:35.792Z,1.95
2023-04-15T12:52:03.927Z,2.20
2023-04-15T12:54:31.937Z,1.63
2023-04-15T12:57:00.042Z,3.28
2023-04-15T12:59:27.052Z,2.72
2023-04-15T13:01:54.973Z,2.58
2023-04-15T13:04:22.490Z,1.88
2023-04-15T13:06:49.981Z,2.58
2023-04-15T13:09:16.990Z,2.15
2023-04-15T13:11:44.233Z,3.13
2023-04-15T13:14:13.920Z,2.30
2023-04-15T13:16:47.662Z,2.30
2023-04-15T13:19:14.950Z,1.92
2023-04-15T13:21:41.829Z,2.33
2023-04-15T13:24:10.295Z,2.20
2023-04-15T13:26:37.978Z,3.78
2023-04-15T13:29:05.025Z,2.33
2023-04-15T13:31:32.222Z,3.05
2023-04-15T13:33:59.304Z,2.75
2023-04-15T13:36:27.379Z,2.00
2023-04-15T13:38:54.657Z,2.15
2023-04-15T13:41:22.063Z,2.60
2023-04-15T13:43:49.019Z,3.50
2023-04-15T13:46:16.185Z,2.80
2023-04-15T13:48:43.321Z,2.05
2023-04-15T13:51:10.496Z,2.20
2023-04-15T13:53:38.428Z,2.10
2023-04-15T13:56:10.157Z,2.60
2023-04-15T13:58:37.869Z,2.35
2023-04-15T14:01:06.935Z,2.83
2023-04-15T14:03:38.314Z,2.10
2023-04-15T14:06:06.514Z,2.67
2023-04-15T14:08:33.861Z,2.35
2023-04-15T14:11:01.055Z,2.72
2023-04-15T14:13:28.077Z,2.45
2023-04-15T14:15:55.561Z,2.15
2023-04-15T14:18:22.655Z,2.35
2023-04-15T14:20:49.928Z,3.47
2023-04-15T14:23:16.925Z,2.17
2023-04-15T14:25:45.518Z,2.70
2023-04-15T14:28:13.833Z,3.50
2023-04-15T14:30:40.964Z,2.95
2023-04-15T14:33:08.006Z,3.38
2023-04-15T14:35:37.083Z,3.22
2023-04-15T14:38:04.204Z,2.88
2023-04-15T14:40:31.355Z,3.88
2023-04-15T14:42:58.305Z,3.50
2023-04-15T14:45:25.553Z,3.83
2023-04-15T14:47:53.408Z,2.92
2023-04-15T14:50:20.491Z,2.95
2023-04-15T14:52:47.619Z,2.53
2023-04-15T14:55:14.639Z,3.13
2023-04-15T14:57:42.880Z,3.13
2023-04-15T15:00:13.769Z,3.58
2023-04-15T15:02:43.750Z,3.33
2023-04-15T15:05:12.172Z,3.17
2023-04-15T15:07:41.121Z,2.72
2023-04-15T15:10:08.559Z,3.45
2023-04-15T15:12:35.891Z,3.13
2023-04-15T15:15:12.237Z,3.10
2023-04-15T15:17:39.818Z,2.88
2023-04-15T15:20:09.642Z,2.60
2023-04-15T15:22:36.606Z,3.40
2023-04-15T15:25:03.747Z,4.15
2023-04-15T15:27:30.753Z,1.85
2023-04-15T15:29:58.639Z,2.65
2023-04-15T15:32:25.921Z,2.95
2023-04-15T15:34:53.443Z,2.92
2023-04-15T15:37:20.449Z,2.80
2023-04-15T15:39:48.279Z,1.05
2023-04-15T15:42:15.516Z,1.92
2023-04-15T15:44:42.519Z,2.03
2023-04-15T15:47:09.576Z,2.45
2023-04-15T15:49:36.645Z,3.63
2023-04-15T15:52:03.611Z,2.90
2023-04-15T15:54:30.621Z,2.85
2023-04-15T15:56:57.684Z,3.05
2023-04-15T15:59:25.662Z,2.55
2023-04-15T16:01:52.871Z,2.38
2023-04-15T16:04:20.188Z,3.00
2023-04-15T16:06:47.494Z,3.05
2023-04-15T16:09:14.943Z,2.15
2023-04-15T16:11:41.959Z,2.60
2023-04-15T16:14:08.919Z,2.55
2023-04-15T16:16:36.039Z,2.55
2023-04-15T16:19:03.156Z,2.22
2023-04-15T16:21:31.285Z,2.50
2023-04-15T16:23:58.288Z,2.53
2023-04-15T16:26:25.262Z,2.42
2023-04-15T16:28:52.173Z,2.28
2023-04-15T16:31:19.070Z,2.22
2023-04-15T16:33:46.263Z,2.55
2023-04-15T16:36:13.247Z,2.50
2023-04-15T16:38:40.202Z,2.60
2023-04-15T16:41:07.275Z,3.25
2023-04-15T16:43:34.166Z,2.53
2023-04-15T16:46:01.354Z,2.92
2023-04-15T16:48:28.423Z,3.20
2023-04-15T16:50:55.432Z,2.60
2023-04-15T16:53:22.383Z,2.40
2023-04-15T16:55:49.359Z,2.60
2023-04-15T16:58:16.434Z,2.00
2023-04-15T17:00:43.486Z,2.47
2023-04-15T17:03:10.840Z,4.13
2023-04-15T17:05:38.258Z,3.03
2023-04-15T17:08:05.893Z,2.35
2023-04-15T17:10:32.855Z,2.42
2023-04-15T17:13:00.138Z,2.20
2023-04-15T17:15:27.301Z,2.40
2023-04-15T17:17:54.683Z,2.13
2023-04-15T17:20:21.771Z,3.90
2023-04-15T17:22:49.223Z,1.88
2023-04-15T17:25:16.199Z,2.10
2023-04-15T17:27:43.160Z,2.70
2023-04-15T17:30:10.861Z,2.40
2023-04-15T17:32:39.505Z,2.00
2023-04-15T17:35:07.395Z,2.13
2023-04-15T17:37:35.362Z,2.40
2023-04-15T17:40:02.467Z,2.70
2023-04-15T17:42:29.447Z,2.90
2023-04-15T17:44:56.433Z,4.10
2023-04-15T17:47:23.425Z,2.08
2023-04-15T17:49:50.576Z,2.67
2023-04-15T17:52:17.770Z,2.20
2023-04-15T17:54:46.208Z,1.98
2023-04-15T17:57:13.186Z,2.25
2023-04-15T17:59:44.108Z,2.85
2023-04-15T18:02:11.719Z,2.50
2023-04-15T18:04:39.624Z,2.33
2023-04-15T18:07:06.784Z,2.65
2023-04-15T18:09:33.745Z,3.70
2023-04-15T18:12:02.150Z,2.40
2023-04-15T18:14:34.583Z,2.10
2023-04-15T18:17:05.462Z,2.50
2023-04-15T18:19:32.727Z,3.03
2023-04-15T18:22:03.357Z,3.05
2023-04-15T18:24:30.473Z,2.58
2023-04-15T18:26:57.600Z,2.10
2023-04-15T18:29:25.457Z,2.47
2023-04-15T18:31:53.090Z,2.67
2023-04-15T18:34:20.292Z,2.90
2023-04-15T18:36:47.233Z,3.25
2023-04-15T18:39:14.541Z,2.97
2023-04-15T18:41:41.433Z,5.63
2023-04-15T18:44:08.488Z,3.20
2023-04-15T18:46:35.541Z,2.65
2023-04-15T18:49:02.645Z,3.00
2023-04-15T18:51:30.164Z,2.75
2023-04-15T18:53:57.188Z,2.50
2023-04-15T18:56:24.262Z,2.60
2023-04-15T18:59:08.948Z,2.25
2023-04-15T19:01:38.230Z,2.58
2023-04-15T19:04:05.424Z,3.50
2023-04-15T19:06:32.478Z,2.85
2023-04-15T19:08:59.514Z,3.40
2023-04-15T19:11:26.540Z,2.22
2023-04-15T19:13:53.724Z,2.78
2023-04-15T19:16:21.144Z,2.85
2023-04-15T19:18:48.181Z,2.92
2023-04-15T19:21:15.632Z,2.60
2023-04-15T19:23:43.348Z,2.47
2023-04-15T19:26:11.694Z,2.58
2023-04-15T19:28:38.689Z,3.40
2023-04-15T19:31:06.848Z,3.55
2023-04-15T19:33:33.918Z,3.50
2023-04-15T19:36:05.962Z,3.60
2023-04-15T19:38:37.591Z,2.92
2023-04-15T19:41:04.623Z,2.58
2023-04-15T19:43:32.964Z,2.70
2023-04-15T19:46:00.245Z,3.65
2023-04-15T19:48:27.354Z,3.45
2023-04-15T19:50:54.320Z,3.88
2023-04-15T19:53:21.233Z,3.47
2023-04-15T19:55:49.105Z,3.47
2023-04-15T19:58:16.261Z,3.22
2023-04-15T20:00:43.328Z,2.70
2023-04-15T20:03:10.859Z,3.33
2023-04-15T20:05:41.078Z,2.78
2023-04-15T20:08:08.343Z,2.25
2023-04-15T20:10:36.952Z,3.30
2023-04-15T20:13:04.213Z,3.22
2023-04-15T20:15:31.497Z,2.88
2023-04-15T20:17:58.528Z,3.83
2023-04-15T20:20:25.682Z,2.92
2023-04-15T20:22:53.247Z,3.03
2023-04-15T20:25:20.606Z,2.92
2023-04-15T20:27:47.530Z,3.63
2023-04-15T20:30:14.606Z,3.45
2023-04-15T20:32:41.944Z,3.40
2023-04-15T20:35:09.202Z,3.38
2023-04-15T20:37:40.708Z,3.13
2023-04-15T20:40:08.495Z,3.40
2023-04-15T20:42:35.563Z,3.17
2023-04-15T20:45:02.895Z,4.47
2023-04-15T20:47:30.375Z,3.40
2023-04-15T20:49:57.445Z,3.30
2023-04-15T20:52:24.407Z,4.85
2023-04-15T20:54:51.718Z,3.30
2023-04-15T20:57:20.356Z,4.97
2023-04-15T20:59:47.669Z,4.97
2023-04-15T21:02:14.760Z,3.15
2023-04-15T21:04:41.931Z,3.30
2023-04-15T21:07:10.211Z,3.38
2023-04-15T21:09:38.702Z,2.80
2023-04-15T21:12:05.639Z,3.15
2023-04-15T21:14:32.665Z,2.97
2023-04-15T21:16:59.717Z,3.70
2023-04-15T21:19:26.938Z,3.88
2023-04-15T21:21:53.944Z,3.10
2023-04-15T21:24:20.961Z,3.70
2023-04-15T21:26:47.894Z,3.75
2023-04-15T21:29:14.966Z,3.80
2023-04-15T21:31:42.182Z,4.03
2023-04-15T21:34:14.904Z,4.20
2023-04-15T21:36:44.719Z,3.53
2023-04-15T21:39:11.607Z,3.72
2023-04-15T21:41:38.573Z,3.90
2023-04-15T21:44:05.809Z,3.50
2023-04-15T21:46:35.517Z,5.43
2023-04-15T21:49:03.700Z,3.05
2023-04-15T21:51:31.757Z,2.97
2023-04-15T21:53:59.375Z,3.22
2023-04-15T21:56:26.650Z,3.50
2023-04-15T21:58:59.054Z,3.35
2023-04-15T22:01:27.104Z,3.22
2023-04-15T22:03:54.398Z,3.42
2023-04-15T22:06:21.875Z,3.10
2023-04-15T22:08:57.358Z,3.22
2023-04-15T22:11:28.639Z,3.55
2023-04-15T22:13:57.476Z,2.95
2023-04-15T22:16:27.978Z,4.00
2023-04-15T22:18:55.883Z,3.13
2023-04-15T22:21:23.427Z,3.42
2023-04-15T22:23:51.597Z,3.20
2023-04-15T22:26:18.852Z,3.08
2023-04-15T22:28:45.958Z,3.40
2023-04-15T22:31:14.354Z,3.67
2023-04-15T22:33:41.501Z,3.30
2023-04-15T22:36:08.630Z,2.55
2023-04-15T22:38:35.879Z,3.30
2023-04-15T22:41:02.798Z,3.38
2023-04-15T22:43:29.846Z,3.55
2023-04-15T22:45:56.917Z,3.13
2023-04-15T22:48:23.999Z,3.22
2023-04-15T22:50:51.045Z,3.17
2023-04-15T22:53:20.779Z,3.33
2023-04-15T22:55:48.859Z,3.75
2023-04-15T22:58:17.283Z,3.95
2023-04-15T23:00:44.980Z,4.03
2023-04-15T23:03:12.188Z,3.38
2023-04-15T23:05:41.382Z,4.03
2023-04-15T23:08:11.296Z,3.33
2023-04-15T23:10:40.188Z,3.33
2023-04-15T23:13:07.174Z,3.00
2023-04-15T23:15:34.076Z,3.05
2023-04-15T23:18:02.287Z,2.83
2023-04-15T23:20:29.312Z,2.95
2023-04-15T23:22:56.469Z,102.50
2023-04-15T23:25:23.536Z,122.50
2023-04-15T23:27:50.584Z,49.63
2023-04-15T23:30:17.466Z,23.63
2023-04-15T23:32:44.483Z,19.42
2023-04-15T23:35:11.420Z,9.30
2023-04-15T23:37:38.447Z,7.68
2023-04-15T23:40:06.043Z,9.27
2023-04-15T23:42:33.216Z,7.40
2023-04-15T23:45:00.165Z,3.97
2023-04-15T23:47:27.415Z,3.33
2023-04-15T23:49:54.417Z,3.63
2023-04-15T23:52:21.410Z,3.15
2023-04-15T23:54:48.433Z,3.22
2023-04-15T23:57:15.689Z,3.08
2023-04-15T23:59:45.637Z,3.17
